Time;durP1;ratioP1;P1;durP2;ratioP2;P2;SDS_P1;SDS_P2;PMS_P1;PMS_P2;Temp;Humidity;BMP_temperature;BMP_pressure;BME280_temperature;BME280_humidity;BME280_pressure;Samples;Min_cycle;Max_cycle;Signal;HPM_P1;HPM_P2
2021/03/07 00:00:15;;;;;;;34.95;31.15;;;8.80;88.30;8.90;100269.00;;;;343957;28;87602;-87
2021/03/07 00:00:26;;;;;;;36.22;31.13;;;8.80;88.30;9.00;100273.00;;;;345377;28;91550;-87
2021/03/07 00:00:37;;;;;;;37.72;30.90;;;8.80;88.30;9.10;100272.00;;;;342486;28;87666;-88
2021/03/07 00:00:49;;;;;;;36.70;31.00;;;8.80;88.20;9.20;100268.00;;;;345384;28;85646;-87
2021/03/07 00:01:01;;;;;;;36.05;30.65;;;8.80;88.20;9.20;100261.00;;;;344106;28;87281;-87
2021/03/07 00:01:12;;;;;;;36.58;32.65;;;8.80;88.10;9.20;100259.00;;;;346867;27;86589;-88
2021/03/07 00:01:24;;;;;;;36.10;32.35;;;8.80;88.00;9.20;100270.00;;;;344176;28;87290;-87
2021/03/07 00:01:36;;;;;;;36.22;32.38;;;8.80;88.00;9.20;100264.00;;;;344170;28;87728;-88
2021/03/07 00:01:47;;;;;;;35.28;31.10;;;8.80;87.90;9.20;100270.00;;;;342569;28;86836;-87
2021/03/07 00:01:59;;;;;;;34.72;30.58;;;8.80;88.40;9.30;100271.00;;;;344176;28;87638;-87
2021/03/07 00:02:11;;;;;;;35.13;30.98;;;8.90;87.80;9.30;100266.00;;;;344145;28;87525;-87
2021/03/07 00:02:23;;;;;;;36.05;31.15;;;8.90;87.80;9.30;100257.00;;;;345586;28;87907;-88
2021/03/07 00:02:35;;;;;;;37.25;31.33;;;8.90;87.80;9.10;100266.00;;;;343442;28;90490;-88
2021/03/07 00:02:46;;;;;;;36.13;31.23;;;8.90;88.00;9.00;100269.00;;;;344752;28;87454;-87
2021/03/07 00:02:58;;;;;;;36.97;31.95;;;8.90;87.90;8.90;100275.00;;;;342667;28;87134;-88
2021/03/07 00:03:09;;;;;;;35.45;30.65;;;8.90;87.80;8.90;100274.00;;;;345484;28;88447;-87
2021/03/07 00:03:21;;;;;;;36.70;31.52;;;8.90;87.80;9.00;100270.00;;;;342813;28;86073;-87
2021/03/07 00:03:32;;;;;;;36.47;31.75;;;8.80;87.80;9.00;100266.00;;;;342689;28;86685;-87
2021/03/07 00:03:44;;;;;;;35.95;31.55;;;8.90;87.70;9.10;100276.00;;;;344158;28;86685;-88
2021/03/07 00:03:55;;;;;;;37.55;31.15;;;8.90;87.70;8.90;100280.00;;;;342722;28;86431;-87
2021/03/07 00:04:06;;;;;;;37.55;31.10;;;8.90;87.80;8.90;100269.00;;;;345394;28;86971;-87
2021/03/07 00:04:18;;;;;;;38.17;31.63;;;8.80;87.80;8.90;100267.00;;;;344244;28;87802;-86
2021/03/07 00:04:29;;;;;;;37.10;31.65;;;8.90;87.80;8.90;100270.00;;;;344030;28;85977;-87
2021/03/07 00:04:41;;;;;;;36.20;32.00;;;8.80;87.80;8.90;100274.00;;;;344013;28;86860;-89
2021/03/07 00:04:52;;;;;;;36.60;32.15;;;8.80;87.80;8.90;100264.00;;;;342762;28;87334;-88
2021/03/07 00:05:05;;;;;;;38.35;31.42;;;8.80;87.90;8.80;100271.00;;;;345562;28;86702;-88
2021/03/07 00:05:17;;;;;;;37.92;30.95;;;8.80;88.00;8.70;100277.00;;;;341305;28;90769;-87
2021/03/07 00:05:28;;;;;;;35.85;31.27;;;8.80;88.10;8.80;100274.00;;;;345099;28;88030;-88
2021/03/07 00:05:39;;;;;;;35.92;31.75;;;8.80;88.10;8.80;100273.00;;;;343501;28;85971;-87
2021/03/07 00:05:51;;;;;;;35.88;32.03;;;8.80;88.10;8.80;100267.00;;;;344239;28;87618;-87
2021/03/07 00:06:03;;;;;;;35.80;31.92;;;8.70;88.60;8.80;100273.00;;;;344870;28;86903;-87
2021/03/07 00:06:15;;;;;;;35.70;31.65;;;8.70;88.20;8.70;100273.00;;;;344237;28;87485;-87
2021/03/07 00:06:26;;;;;;;35.13;31.17;;;8.70;88.20;8.70;100268.00;;;;343920;28;87457;-88
2021/03/07 00:06:37;;;;;;;34.45;30.75;;;8.70;88.30;8.60;100276.00;;;;345287;28;88123;-87
2021/03/07 00:06:49;;;;;;;34.35;30.65;;;8.70;88.30;8.80;100275.00;;;;345381;28;87135;-87
2021/03/07 00:07:01;;;;;;;34.85;31.15;;;8.70;88.30;9.00;100273.00;;;;345525;28;87707;-87
2021/03/07 00:07:12;;;;;;;35.15;31.35;;;8.80;88.40;9.00;100272.00;;;;344002;28;85028;-89
2021/03/07 00:07:23;;;;;;;35.15;31.35;;;8.70;88.20;9.00;100272.00;;;;346911;28;88572;-87
2021/03/07 00:07:35;;;;;;;35.50;31.77;;;8.80;88.30;8.80;100278.00;;;;342798;28;86223;-87
2021/03/07 00:07:47;;;;;;;35.08;31.38;;;8.70;88.40;8.70;100270.00;;;;342804;28;87793;-87
2021/03/07 00:07:58;;;;;;;34.33;30.58;;;8.80;88.50;8.80;100276.00;;;;342811;28;87106;-87
2021/03/07 00:08:09;;;;;;;36.30;31.60;;;8.70;88.40;8.70;100278.00;;;;342803;28;87796;-87
2021/03/07 00:08:21;;;;;;;38.45;32.33;;;8.70;88.40;8.80;100269.00;;;;344184;28;87407;-87
2021/03/07 00:08:38;;;;;;;40.58;32.58;;;8.70;88.30;9.00;100281.00;;;;344016;28;86507;-87
2021/03/07 00:09:04;;;;;;;36.72;31.85;;;8.70;88.30;9.10;100275.00;;;;342500;28;91081;-87
2021/03/07 00:09:17;;;;;;;37.30;30.90;;;8.80;88.30;9.00;100275.00;;;;344172;28;87169;-87
2021/03/07 00:09:28;;;;;;;39.78;31.67;;;8.70;88.30;9.00;100267.00;;;;341394;28;87236;-87
2021/03/07 00:09:40;;;;;;;37.05;31.98;;;8.80;88.20;9.00;100275.00;;;;344088;28;85654;-87
2021/03/07 00:09:51;;;;;;;36.97;32.25;;;8.80;88.20;9.00;100277.00;;;;342510;28;87168;-88
2021/03/07 00:10:06;;;;;;;36.05;32.17;;;8.80;88.20;8.90;100274.00;;;;344191;28;86946;-87
2021/03/07 00:10:19;;;;;;;36.47;32.60;;;8.80;88.20;8.90;100268.00;;;;344007;28;91122;-87
2021/03/07 00:10:30;;;;;;;36.08;31.83;;;8.80;88.20;8.90;100277.00;;;;342738;28;86286;-89
2021/03/07 00:10:42;;;;;;;37.80;31.98;;;8.80;88.20;8.90;100276.00;;;;341390;28;87277;-88
2021/03/07 00:10:55;;;;;;;36.50;31.65;;;8.80;88.30;8.80;100274.00;;;;345492;28;90888;-87
2021/03/07 00:11:07;;;;;;;35.80;31.33;;;8.80;88.30;8.80;100278.00;;;;344094;28;86703;-87
2021/03/07 00:11:18;;;;;;;36.70;31.80;;;8.80;88.50;8.80;100276.00;;;;344140;28;87835;-88
2021/03/07 00:11:29;;;;;;;37.65;32.78;;;8.80;88.50;8.80;100273.00;;;;344238;28;87614;-89
2021/03/07 00:11:41;;;;;;;35.63;31.80;;;8.70;88.40;8.80;100272.00;;;;344059;28;87224;-87
2021/03/07 00:11:52;;;;;;;34.42;30.77;;;8.70;88.40;8.80;100274.00;;;;342824;28;87250;-88
2021/03/07 00:12:04;;;;;;;34.67;30.98;;;8.70;88.40;8.90;100269.00;;;;342119;28;86358;-87
2021/03/07 00:12:15;;;;;;;35.22;31.52;;;8.70;88.30;9.10;100277.00;;;;341643;28;83585;-87
2021/03/07 00:12:27;;;;;;;35.45;31.65;;;8.80;88.50;9.10;100278.00;;;;343967;28;87946;-87
2021/03/07 00:12:38;;;;;;;35.15;31.35;;;8.80;88.40;9.10;100277.00;;;;341304;28;87050;-87
2021/03/07 00:12:50;;;;;;;34.22;30.58;;;8.80;88.40;9.10;100277.00;;;;342848;28;87640;-87
2021/03/07 00:13:01;;;;;;;33.50;29.77;;;8.80;88.40;9.20;100275.00;;;;346945;28;86899;-88
2021/03/07 00:13:13;;;;;;;35.85;30.13;;;8.80;88.40;9.00;100265.00;;;;344073;28;87560;-88
2021/03/07 00:13:24;;;;;;;36.80;31.48;;;8.80;88.40;9.10;100273.00;;;;344178;28;86539;-87
2021/03/07 00:13:35;;;;;;;37.00;32.72;;;8.80;88.30;9.10;100273.00;;;;344135;28;88015;-87
2021/03/07 00:13:47;;;;;;;36.17;32.28;;;8.80;88.20;9.10;100273.00;;;;344115;28;87214;-87
2021/03/07 00:13:59;;;;;;;36.03;31.75;;;8.90;88.20;9.10;100271.00;;;;344281;28;87534;-87
2021/03/07 00:14:11;;;;;;;37.45;32.38;;;8.90;88.20;9.00;100276.00;;;;345540;28;87352;-87
2021/03/07 00:14:22;;;;;;;37.20;32.28;;;8.80;88.10;8.90;100267.00;;;;342847;28;85272;-88
2021/03/07 00:14:33;;;;;;;36.47;32.53;;;8.80;88.20;8.90;100273.00;;;;342122;28;86159;-88
2021/03/07 00:14:45;;;;;;;35.38;31.52;;;8.80;88.70;9.00;100274.00;;;;344015;28;86887;-87
2021/03/07 00:14:56;;;;;;;34.83;31.05;;;8.80;88.10;9.00;100267.00;;;;347001;28;85785;-88
2021/03/07 00:15:10;;;;;;;33.30;29.63;;;8.80;88.00;9.10;100274.00;;;;345336;28;87012;-87
2021/03/07 00:15:23;;;;;;;33.50;29.83;;;8.80;88.00;9.00;100278.00;;;;342508;28;92067;-88
2021/03/07 00:15:35;;;;;;;34.10;30.42;;;8.80;88.00;8.90;100272.00;;;;342696;28;86783;-88
2021/03/07 00:15:46;;;;;;;34.45;30.75;;;8.80;88.00;8.90;100271.00;;;;345449;28;87375;-87
2021/03/07 00:15:57;;;;;;;35.28;31.42;;;8.80;88.00;8.90;100266.00;;;;341666;28;85363;-87
2021/03/07 00:16:09;;;;;;;34.45;30.80;;;8.80;88.00;8.90;100270.00;;;;344105;28;86991;-87
2021/03/07 00:16:20;;;;;;;34.10;30.42;;;8.80;87.90;8.80;100271.00;;;;344308;28;84790;-88
2021/03/07 00:16:31;;;;;;;33.75;30.10;;;8.80;88.00;8.80;100275.00;;;;344135;28;87012;-87
2021/03/07 00:16:44;;;;;;;33.10;29.15;;;8.80;88.10;8.80;100271.00;;;;341467;28;86987;-88
2021/03/07 00:16:55;;;;;;;32.97;29.30;;;8.80;88.10;8.80;100270.00;;;;342782;28;86760;-87
2021/03/07 00:17:07;;;;;;;33.30;29.58;;;8.80;88.20;8.80;100272.00;;;;342735;28;87975;-88
2021/03/07 00:17:18;;;;;;;33.15;29.20;;;8.80;88.20;8.80;100273.00;;;;341446;28;86287;-87
2021/03/07 00:17:30;;;;;;;32.22;28.48;;;8.80;88.30;8.80;100268.00;;;;344304;28;87825;-89
2021/03/07 00:17:41;;;;;;;32.83;29.30;;;8.80;88.30;8.80;100269.00;;;;342279;28;86938;-89
2021/03/07 00:17:53;;;;;;;34.70;31.02;;;8.80;88.40;8.80;100273.00;;;;344161;28;87650;-87
2021/03/07 00:18:05;;;;;;;35.55;31.73;;;8.80;88.40;8.80;100266.00;;;;345288;28;86284;-87
2021/03/07 00:18:17;;;;;;;35.03;31.23;;;8.80;88.40;8.90;100269.00;;;;341358;28;86933;-87
2021/03/07 00:18:29;;;;;;;34.97;31.20;;;8.80;88.40;9.00;100267.00;;;;344140;28;86928;-88
2021/03/07 00:18:40;;;;;;;35.53;31.65;;;8.80;88.40;9.00;100271.00;;;;341414;28;87165;-87
2021/03/07 00:18:52;;;;;;;36.88;31.65;;;8.80;88.30;9.10;100267.00;;;;345572;28;87238;-89
2021/03/07 00:19:03;;;;;;;35.72;31.55;;;8.80;88.20;9.00;100271.00;;;;342846;28;88002;-88
2021/03/07 00:19:15;;;;;;;37.25;33.00;;;8.80;88.20;9.00;100273.00;;;;343927;28;86601;-87
2021/03/07 00:19:26;;;;;;;37.60;33.47;;;8.80;88.20;9.00;100270.00;;;;341440;28;86400;-88
2021/03/07 00:19:37;;;;;;;38.15;33.50;;;8.80;88.10;9.00;100276.00;;;;344131;28;87176;-87
2021/03/07 00:19:49;;;;;;;37.80;32.70;;;8.80;88.20;8.90;100263.00;;;;342835;28;86721;-88
2021/03/07 00:20:00;;;;;;;38.08;32.78;;;8.80;88.10;8.90;100264.00;;;;344196;28;87132;-88
2021/03/07 00:20:14;;;;;;;38.20;32.05;;;8.80;88.10;8.90;100264.00;;;;342788;28;87768;-88
2021/03/07 00:20:26;;;;;;;37.30;31.88;;;8.80;88.20;8.90;100269.00;;;;342807;28;85639;-87
2021/03/07 00:20:37;;;;;;;35.67;31.73;;;8.80;88.10;8.90;100265.00;;;;343579;28;87555;-88
2021/03/07 00:20:49;;;;;;;35.20;31.40;;;8.80;88.10;9.10;100268.00;;;;343845;28;86576;-88
2021/03/07 00:21:00;;;;;;;35.80;31.85;;;8.80;88.10;9.20;100271.00;;;;342744;28;87127;-87
2021/03/07 00:21:11;;;;;;;36.75;32.75;;;8.80;88.10;9.10;100270.00;;;;342703;28;87106;-88
2021/03/07 00:21:23;;;;;;;38.53;34.22;;;8.90;88.80;9.20;100270.00;;;;341452;28;87856;-88
2021/03/07 00:21:34;;;;;;;40.60;36.03;;;8.90;88.10;9.20;100271.00;;;;344044;28;87219;-87
2021/03/07 00:21:46;;;;;;;40.60;35.53;;;8.90;88.10;9.20;100269.00;;;;345540;28;87840;-87
2021/03/07 00:21:57;;;;;;;39.08;34.53;;;8.90;88.00;9.20;100267.00;;;;342726;28;87199;-87
2021/03/07 00:22:09;;;;;;;38.67;33.88;;;8.90;88.00;9.30;100266.00;;;;344251;28;87503;-87
2021/03/07 00:22:20;;;;;;;38.92;33.70;;;8.90;87.90;9.20;100270.00;;;;344097;28;87410;-87
2021/03/07 00:22:31;;;;;;;39.08;34.25;;;8.90;87.90;9.10;100264.00;;;;343937;28;88207;-87
2021/03/07 00:22:43;;;;;;;38.95;33.78;;;8.90;87.90;9.10;100269.00;;;;343978;28;86116;-88
2021/03/07 00:22:55;;;;;;;38.83;33.83;;;8.90;88.00;9.10;100270.00;;;;340059;28;89348;-87
2021/03/07 00:23:07;;;;;;;36.92;32.58;;;8.90;88.00;9.00;100274.00;;;;341441;28;86055;-89
2021/03/07 00:23:18;;;;;;;36.65;32.60;;;8.90;88.00;9.00;100271.00;;;;345502;28;86411;-88
2021/03/07 00:23:29;;;;;;;36.70;32.70;;;8.90;87.90;9.00;100270.00;;;;344011;28;85549;-87
2021/03/07 00:23:41;;;;;;;38.00;33.38;;;8.80;87.80;8.80;100273.00;;;;344162;28;85338;-87
2021/03/07 00:23:52;;;;;;;37.33;33.22;;;8.80;87.90;8.90;100268.00;;;;346881;28;86588;-87
2021/03/07 00:24:04;;;;;;;37.15;33.00;;;8.90;88.00;8.90;100273.00;;;;343591;28;87958;-87
2021/03/07 00:24:16;;;;;;;37.30;32.88;;;8.90;88.00;9.00;100266.00;;;;344106;28;87189;-88
2021/03/07 00:24:27;;;;;;;37.83;32.08;;;8.90;88.00;8.80;100274.00;;;;342380;28;84403;-88
2021/03/07 00:24:39;;;;;;;38.83;32.63;;;8.90;88.10;8.90;100267.00;;;;342678;28;86320;-87
2021/03/07 00:24:50;;;;;;;38.58;33.72;;;8.80;88.00;8.90;100275.00;;;;344166;28;87637;-86
2021/03/07 00:25:04;;;;;;;39.45;34.85;;;8.90;88.60;8.90;100272.00;;;;345597;28;86087;-87
2021/03/07 00:25:17;;;;;;;37.13;32.83;;;8.80;88.00;8.80;100271.00;;;;341268;28;91363;-87
2021/03/07 00:25:28;;;;;;;35.83;31.92;;;8.80;88.20;8.70;100271.00;;;;344056;28;86435;-88
2021/03/07 00:25:40;;;;;;;35.08;31.38;;;8.80;88.20;8.70;100266.00;;;;345381;28;87296;-88
2021/03/07 00:25:51;;;;;;;35.38;31.52;;;8.80;88.30;8.70;100269.00;;;;338690;28;88048;-87
2021/03/07 00:26:04;;;;;;;35.38;31.45;;;8.80;88.40;8.70;100272.00;;;;344271;28;87931;-88
2021/03/07 00:26:15;;;;;;;38.47;32.33;;;8.80;88.50;8.70;100273.00;;;;341572;28;83676;-88
2021/03/07 00:26:27;;;;;;;38.42;33.33;;;8.80;88.60;8.60;100275.00;;;;346479;27;87049;-89
2021/03/07 00:26:38;;;;;;;37.85;33.58;;;8.70;88.60;8.70;100269.00;;;;343792;28;86198;-87
2021/03/07 00:26:49;;;;;;;36.70;32.75;;;8.70;88.60;8.70;100273.00;;;;343680;28;91749;-87
2021/03/07 00:27:01;;;;;;;36.38;31.88;;;8.70;88.70;8.70;100272.00;;;;343632;28;84933;-88
2021/03/07 00:27:12;;;;;;;37.80;31.98;;;8.70;88.70;8.70;100265.00;;;;345206;28;90681;-89
2021/03/07 00:27:24;;;;;;;35.97;31.27;;;8.70;88.70;8.80;100276.00;;;;342758;28;87406;-88
2021/03/07 00:27:36;;;;;;;37.53;31.85;;;8.70;88.70;8.60;100270.00;;;;345035;28;92677;-87
2021/03/07 00:27:47;;;;;;;37.84;32.50;;;8.70;88.90;8.50;100263.00;;;;342821;28;85204;-87
2021/03/07 00:27:58;;;;;;;37.35;32.33;;;8.70;89.00;8.60;100267.00;;;;345215;28;91655;-87
2021/03/07 00:28:10;;;;;;;35.80;31.92;;;8.70;89.10;8.70;100266.00;;;;344147;28;87238;-87
2021/03/07 00:28:21;;;;;;;34.65;30.92;;;8.60;89.00;8.80;100267.00;;;;341170;28;91649;-87
2021/03/07 00:28:32;;;;;;;34.70;31.00;;;8.60;89.00;8.80;100265.00;;;;346556;28;86458;-88
2021/03/07 00:28:44;;;;;;;35.40;31.60;;;8.70;89.10;8.70;100265.00;;;;345107;28;89657;-87
2021/03/07 00:28:55;;;;;;;37.92;33.38;;;8.60;89.00;8.80;100268.00;;;;342806;28;87418;-89
2021/03/07 00:29:07;;;;;;;38.88;32.92;;;8.70;89.00;8.70;100256.00;;;;343710;28;91675;-87
2021/03/07 00:29:18;;;;;;;38.83;31.73;;;8.70;89.00;8.60;100267.00;;;;342820;28;87056;-87
2021/03/07 00:29:30;;;;;;;37.90;30.60;;;8.70;89.00;8.50;100272.00;;;;345234;28;92680;-87
2021/03/07 00:29:41;;;;;;;35.85;30.80;;;8.70;89.10;8.70;100267.00;;;;346475;28;85961;-87
2021/03/07 00:29:52;;;;;;;35.08;31.13;;;8.70;89.10;8.80;100273.00;;;;346480;28;91866;-87
2021/03/07 00:30:06;;;;;;;38.28;32.55;;;8.70;89.20;8.80;100262.00;;;;344116;28;84658;-87
2021/03/07 00:30:18;;;;;;;39.65;32.17;;;8.70;89.10;8.80;100263.00;;;;345246;28;95681;-87
2021/03/07 00:30:30;;;;;;;37.45;31.77;;;8.70;89.00;8.80;100273.00;;;;342735;28;86888;-88
2021/03/07 00:30:41;;;;;;;35.70;31.67;;;8.70;89.10;8.70;100265.00;;;;342448;28;91771;-87
2021/03/07 00:30:53;;;;;;;36.45;32.58;;;8.70;89.20;8.80;100278.00;;;;344138;28;86547;-88
2021/03/07 00:31:05;;;;;;;37.10;33.20;;;8.70;89.10;8.70;100277.00;;;;343821;28;91825;-88
2021/03/07 00:31:17;;;;;;;36.22;32.33;;;8.70;89.10;8.80;100266.00;;;;346982;28;84700;-87
2021/03/07 00:31:29;;;;;;;35.38;31.42;;;8.70;89.00;8.80;100274.00;;;;341053;28;93814;-87
2021/03/07 00:31:40;;;;;;;37.88;31.40;;;8.60;89.10;8.80;100268.00;;;;342790;28;87392;-87
2021/03/07 00:31:52;;;;;;;38.30;31.30;;;8.60;89.00;8.80;100268.00;;;;346284;28;90903;-88
2021/03/07 00:32:03;;;;;;;36.50;32.15;;;8.60;89.00;8.80;100265.00;;;;342850;28;85981;-87
2021/03/07 00:32:15;;;;;;;36.84;32.44;;;8.60;89.00;8.70;100273.00;;;;346665;28;91485;-87
2021/03/07 00:32:27;;;;;;;37.30;32.53;;;8.60;89.00;8.70;100264.00;;;;342327;28;87071;-88
2021/03/07 00:32:39;;;;;;;36.35;32.30;;;8.60;89.00;8.70;100274.00;;;;343568;28;92535;-87
2021/03/07 00:32:50;;;;;;;35.20;31.20;;;8.60;89.10;8.60;100267.00;;;;344153;28;86760;-87
2021/03/07 00:33:03;;;;;;;36.45;30.77;;;8.60;89.20;8.60;100267.00;;;;341845;28;92156;-88
2021/03/07 00:33:14;;;;;;;36.97;29.92;;;8.60;89.80;8.60;100272.00;;;;341432;28;86170;-87
2021/03/07 00:33:26;;;;;;;35.97;29.75;;;8.60;89.30;8.60;100267.00;;;;341067;28;93448;-87
2021/03/07 00:33:37;;;;;;;34.80;30.33;;;8.60;89.30;8.60;100267.00;;;;342389;28;85590;-87
2021/03/07 00:33:49;;;;;;;39.95;31.02;;;8.60;89.30;8.60;100271.00;;;;343560;28;90864;-87
2021/03/07 00:34:00;;;;;;;40.97;31.35;;;8.60;89.40;8.60;100270.00;;;;342783;28;87180;-88
2021/03/07 00:34:12;;;;;;;39.03;31.92;;;8.60;89.40;8.50;100256.00;;;;342624;28;91812;-87
2021/03/07 00:34:23;;;;;;;35.50;31.75;;;8.60;89.40;8.50;100265.00;;;;342757;28;87149;-87
2021/03/07 00:34:34;;;;;;;35.53;31.70;;;8.60;89.50;8.50;100268.00;;;;342518;28;91751;-87
2021/03/07 00:34:46;;;;;;;35.60;31.75;;;8.50;89.50;8.70;100271.00;;;;342785;28;87112;-88
2021/03/07 00:34:57;;;;;;;35.53;31.63;;;8.60;89.60;8.60;100272.00;;;;341188;28;90807;-87
2021/03/07 00:35:09;;;;;;;36.90;31.95;;;8.50;89.60;8.50;100263.00;;;;344047;28;86106;-87
2021/03/07 00:35:20;;;;;;;39.88;33.88;;;8.50;89.60;8.50;100270.00;;;;342305;28;92573;-88
2021/03/07 00:35:32;;;;;;;38.63;34.45;;;8.50;89.60;8.50;100266.00;;;;343807;28;86297;-87
2021/03/07 00:35:43;;;;;;;37.10;33.25;;;8.50;89.70;8.50;100262.00;;;;344750;28;91502;-87
2021/03/07 00:35:54;;;;;;;35.92;32.03;;;8.50;89.80;8.60;100268.00;;;;341210;28;86313;-88
2021/03/07 00:36:06;;;;;;;36.97;32.22;;;8.50;89.80;8.60;100266.00;;;;343534;28;92185;-86
2021/03/07 00:36:17;;;;;;;37.33;32.80;;;8.50;89.80;8.60;100261.00;;;;342825;28;87764;-88
2021/03/07 00:36:29;;;;;;;37.10;33.10;;;8.50;89.80;8.60;100274.00;;;;342519;28;89228;-87
2021/03/07 00:36:40;;;;;;;36.53;32.67;;;8.50;89.80;8.70;100271.00;;;;340119;28;86225;-87
2021/03/07 00:36:51;;;;;;;35.75;31.90;;;8.50;89.80;8.80;100269.00;;;;343897;28;92159;-88
2021/03/07 00:37:03;;;;;;;35.60;31.50;;;8.50;89.70;8.70;100266.00;;;;345530;28;87030;-87
2021/03/07 00:37:14;;;;;;;35.44;31.56;;;8.50;89.80;8.60;100271.00;;;;343797;28;92955;-87
2021/03/07 00:37:28;;;;;;;35.47;31.63;;;8.50;89.70;8.50;100268.00;;;;343673;28;90304;-88
2021/03/07 00:37:40;;;;;;;33.50;30.00;;;8.50;89.50;8.60;100261.00;;;;345332;28;91703;-86
2021/03/07 00:37:51;;;;;;;33.75;30.15;;;8.50;89.40;8.50;100270.00;;;;342775;28;85874;-86
2021/03/07 00:38:03;;;;;;;33.53;29.92;;;8.50;89.50;8.50;100267.00;;;;345311;28;91628;-87
2021/03/07 00:38:14;;;;;;;33.60;29.92;;;8.50;89.60;8.50;100266.00;;;;344132;28;87703;-87
2021/03/07 00:38:25;;;;;;;34.78;30.98;;;8.50;89.60;8.50;100265.00;;;;345188;28;91593;-87
2021/03/07 00:38:37;;;;;;;35.80;31.85;;;8.50;89.60;8.50;100270.00;;;;342515;28;87138;-88
2021/03/07 00:38:48;;;;;;;37.30;32.22;;;8.50;89.60;8.40;100276.00;;;;342470;28;88487;-87
2021/03/07 00:39:00;;;;;;;36.55;31.15;;;8.50;89.70;8.40;100271.00;;;;344216;28;87226;-87
2021/03/07 00:39:23;;;;;;;35.13;30.13;;;8.40;89.70;8.50;100272.00;;;;342381;28;94616;-87
2021/03/07 00:39:35;;;;;;;33.53;29.80;;;8.40;89.90;8.50;100276.00;;;;341481;28;86766;-87
2021/03/07 00:39:46;;;;;;;35.50;30.75;;;8.40;89.90;8.50;100267.00;;;;343679;28;90863;-87
2021/03/07 00:39:57;;;;;;;35.15;31.00;;;8.40;89.80;8.50;100262.00;;;;341431;28;86215;-87
2021/03/07 00:40:10;;;;;;;36.80;31.23;;;8.40;89.80;8.40;100268.00;;;;345103;28;90614;-87
2021/03/07 00:40:21;;;;;;;35.13;30.90;;;8.40;89.90;8.40;100268.00;;;;344315;28;84187;-87
2021/03/07 00:40:33;;;;;;;36.13;31.90;;;8.40;90.00;8.40;100269.00;;;;342475;28;91714;-87
2021/03/07 00:40:44;;;;;;;36.53;32.53;;;8.40;90.00;8.40;100272.00;;;;344129;28;88274;-87
2021/03/07 00:40:56;;;;;;;38.92;33.67;;;8.40;90.00;8.50;100269.00;;;;343884;28;91895;-87
2021/03/07 00:41:07;;;;;;;38.70;32.83;;;8.40;90.30;8.40;100261.00;;;;345559;28;87535;-87
2021/03/07 00:41:19;;;;;;;39.20;31.95;;;8.40;90.00;8.50;100266.00;;;;344953;28;91817;-87
2021/03/07 00:41:30;;;;;;;38.30;31.40;;;8.40;90.00;8.60;100275.00;;;;344190;28;84685;-88
2021/03/07 00:41:43;;;;;;;37.17;31.23;;;8.40;90.00;8.60;100275.00;;;;342327;28;91332;-87
2021/03/07 00:41:54;;;;;;;35.63;31.77;;;8.40;90.00;8.60;100273.00;;;;346687;28;86205;-87
2021/03/07 00:42:05;;;;;;;35.35;31.60;;;8.40;90.00;8.60;100272.00;;;;341239;28;91222;-86
2021/03/07 00:42:17;;;;;;;35.10;31.30;;;8.40;89.90;8.60;100271.00;;;;342791;28;86690;-88
2021/03/07 00:42:28;;;;;;;34.75;30.67;;;8.40;89.80;8.60;100261.00;;;;341135;28;91444;-88
2021/03/07 00:42:43;;;;;;;34.33;30.63;;;8.40;89.80;8.40;100268.00;;;;344312;28;84892;-87
2021/03/07 00:42:55;;;;;;;34.22;30.52;;;8.40;89.80;8.50;100273.00;;;;343888;28;92214;-87
2021/03/07 00:43:06;;;;;;;35.42;31.42;;;8.40;89.90;8.50;100268.00;;;;344227;28;84721;-87
2021/03/07 00:43:19;;;;;;;37.17;32.47;;;8.40;90.00;8.50;100270.00;;;;343630;28;91684;-87
2021/03/07 00:43:30;;;;;;;36.47;31.98;;;8.40;89.90;8.50;100280.00;;;;342918;28;85006;-87
2021/03/07 00:43:42;;;;;;;34.85;30.70;;;8.40;89.90;8.50;100276.00;;;;342556;28;92140;-87
2021/03/07 00:43:53;;;;;;;34.83;30.52;;;8.40;89.90;8.60;100275.00;;;;344078;28;86971;-87
2021/03/07 00:44:07;;;;;;;34.08;29.85;;;8.40;89.90;8.80;100271.00;;;;343989;28;92114;-87
2021/03/07 00:44:18;;;;;;;34.53;29.65;;;8.40;90.00;8.80;100268.00;;;;343986;28;90986;-87
2021/03/07 00:44:30;;;;;;;35.72;30.58;;;8.50;90.00;8.80;100263.00;;;;341943;28;91927;-89
2021/03/07 00:44:41;;;;;;;37.63;31.73;;;8.50;89.90;8.80;100264.00;;;;345302;28;87149;-88
2021/03/07 00:44:53;;;;;;;37.03;31.55;;;8.50;89.90;8.70;100264.00;;;;343845;28;92406;-88
2021/03/07 00:45:06;;;;;;;36.50;31.80;;;8.50;89.80;8.70;100269.00;;;;343657;28;87806;-88
2021/03/07 00:45:18;;;;;;;34.15;30.42;;;8.50;89.70;8.50;100268.00;;;;345034;28;96594;-87
2021/03/07 00:45:31;;;;;;;33.58;29.85;;;8.50;89.70;8.60;100269.00;;;;344053;28;86441;-89
2021/03/07 00:45:42;;;;;;;32.90;29.15;;;8.50;89.70;8.50;100270.00;;;;343772;28;95579;-88
2021/03/07 00:45:54;;;;;;;34.20;29.88;;;8.50;89.70;8.40;100263.00;;;;344057;28;86965;-87
2021/03/07 00:46:06;;;;;;;35.88;31.38;;;8.50;90.10;8.40;100263.00;;;;346619;28;92754;-87
2021/03/07 00:46:18;;;;;;;38.25;32.60;;;8.50;89.80;8.40;100265.00;;;;340151;28;86672;-87
2021/03/07 00:46:29;;;;;;;36.70;31.17;;;8.50;89.80;8.50;100273.00;;;;345205;28;91700;-88
2021/03/07 00:46:43;;;;;;;34.38;29.33;;;8.50;89.80;8.70;100269.00;;;;342828;28;87253;-87
2021/03/07 00:46:55;;;;;;;34.90;29.38;;;8.50;89.80;8.60;100272.00;;;;343744;28;91030;-86
2021/03/07 00:47:07;;;;;;;35.30;30.50;;;8.50;89.80;8.50;100271.00;;;;341322;28;87482;-86
2021/03/07 00:47:18;;;;;;;37.55;32.72;;;8.50;89.80;8.60;100273.00;;;;345152;28;88603;-87
2021/03/07 00:47:30;;;;;;;37.25;33.08;;;8.50;89.80;8.60;100269.00;;;;343090;28;86925;-88
2021/03/07 00:47:42;;;;;;;35.72;31.60;;;8.50;89.70;8.60;100273.00;;;;343406;28;90789;-88
2021/03/07 00:47:54;;;;;;;34.85;31.08;;;8.50;89.70;8.50;100264.00;;;;345526;28;85115;-88
2021/03/07 00:48:06;;;;;;;34.17;30.35;;;8.50;89.70;8.70;100264.00;;;;345056;28;91697;-88
2021/03/07 00:48:18;;;;;;;35.20;30.70;;;8.50;89.80;8.70;100270.00;;;;342638;28;87085;-88
2021/03/07 00:48:29;;;;;;;35.13;30.58;;;8.50;89.90;8.70;100262.00;;;;343712;28;92144;-87
2021/03/07 00:48:41;;;;;;;35.15;31.33;;;8.50;89.80;8.60;100271.00;;;;341332;28;87679;-87
2021/03/07 00:48:53;;;;;;;34.25;30.55;;;8.50;89.80;8.80;100264.00;;;;345125;28;90737;-87
2021/03/07 00:49:04;;;;;;;34.53;30.77;;;8.50;89.70;8.60;100267.00;;;;344085;28;86996;-89
2021/03/07 00:49:24;;;;;;;34.95;30.85;;;8.50;89.70;8.80;100259.00;;;;340958;28;92671;-87
2021/03/07 00:49:35;;;;;;;36.80;31.55;;;8.50;89.70;8.90;100270.00;;;;342557;28;86362;-87
2021/03/07 00:49:47;;;;;;;36.58;31.70;;;8.50;89.70;8.80;100264.00;;;;343706;28;91323;-87
2021/03/07 00:49:58;;;;;;;37.15;31.92;;;8.50;89.70;8.80;100265.00;;;;341194;28;87393;-87
2021/03/07 00:50:30;;;;;;;37.25;31.77;;;8.50;89.60;8.80;100266.00;;;;342389;28;90810;-87
2021/03/07 00:50:41;;;;;;;35.50;31.02;;;8.50;89.70;8.80;100268.00;;;;342472;28;90856;-88
2021/03/07 00:50:53;;;;;;;38.25;31.80;;;8.50;89.60;8.70;100261.00;;;;342565;28;92135;-88
2021/03/07 00:51:04;;;;;;;38.78;32.17;;;8.60;89.60;8.60;100269.00;;;;343041;28;87187;-87
2021/03/07 00:51:16;;;;;;;36.53;30.80;;;8.60;89.70;8.60;100271.00;;;;344888;28;90836;-87
2021/03/07 00:51:27;;;;;;;33.90;29.75;;;8.50;89.70;8.60;100272.00;;;;343896;28;87649;-89
2021/03/07 00:51:39;;;;;;;32.42;28.90;;;8.50;89.60;8.60;100269.00;;;;342278;28;93659;-87
2021/03/07 00:51:51;;;;;;;33.10;29.52;;;8.50;89.60;8.70;100271.00;;;;342683;28;87340;-87
2021/03/07 00:52:02;;;;;;;34.70;30.98;;;8.50;89.70;8.60;100272.00;;;;342426;28;93410;-87
2021/03/07 00:52:14;;;;;;;37.60;32.40;;;8.50;89.70;8.60;100272.00;;;;345582;28;87098;-87
2021/03/07 00:52:25;;;;;;;37.95;32.25;;;8.50;89.70;8.60;100261.00;;;;343790;28;92356;-88
2021/03/07 00:52:36;;;;;;;36.53;31.23;;;8.50;89.60;8.60;100270.00;;;;341362;28;87350;-86
2021/03/07 00:52:48;;;;;;;35.72;30.38;;;8.50;90.10;8.60;100263.00;;;;345376;28;87882;-87
2021/03/07 00:52:59;;;;;;;37.47;30.67;;;8.50;89.60;8.60;100268.00;;;;342757;28;86883;-88